createdAt,value
2023-01-30T00:01:45.865Z,4.90
2023-01-30T00:04:17.339Z,3.80
2023-01-30T00:06:46.924Z,5.17
2023-01-30T00:09:16.881Z,4.77
2023-01-30T00:11:46.808Z,3.77
2023-01-30T00:14:16.298Z,3.63
2023-01-30T00:16:45.871Z,4.53
2023-01-30T00:19:15.368Z,4.00
2023-01-30T00:21:44.821Z,4.03
2023-01-30T00:24:14.443Z,4.60
2023-01-30T00:26:44.030Z,3.57
2023-01-30T00:29:13.524Z,5.63
2023-01-30T00:31:43.190Z,4.20
2023-01-30T00:34:12.586Z,5.20
2023-01-30T00:36:42.025Z,4.40
2023-01-30T00:39:11.475Z,3.77
2023-01-30T00:41:58.713Z,5.10
2023-01-30T00:44:46.223Z,4.80
2023-01-30T00:47:15.824Z,4.33
2023-01-30T00:49:45.256Z,5.17
2023-01-30T00:52:14.698Z,5.73
2023-01-30T00:54:44.133Z,5.40
2023-01-30T00:57:13.566Z,4.13
2023-01-30T00:59:43.020Z,4.47
2023-01-30T01:02:12.469Z,5.00
2023-01-30T01:04:44.716Z,4.90
2023-01-30T01:07:17.508Z,4.67
2023-01-30T01:09:46.972Z,3.40
2023-01-30T01:12:16.387Z,4.00
2023-01-30T01:14:45.815Z,4.03
2023-01-30T01:17:15.485Z,4.83
2023-01-30T01:19:44.918Z,5.17
2023-01-30T01:22:14.363Z,4.30
2023-01-30T01:24:43.817Z,4.10
2023-01-30T01:27:13.239Z,4.00
2023-01-30T01:29:42.676Z,4.10
2023-01-30T01:32:12.212Z,5.23
2023-01-30T01:34:41.730Z,7.90
2023-01-30T01:37:11.801Z,6.03
2023-01-30T01:39:59.477Z,5.67
2023-01-30T01:42:35.897Z,5.07
2023-01-30T01:45:16.522Z,4.03
2023-01-30T01:47:51.270Z,5.47
2023-01-30T01:50:27.891Z,6.30
2023-01-30T01:53:01.573Z,5.53
2023-01-30T01:55:32.311Z,4.93
2023-01-30T01:58:09.252Z,4.30
2023-01-30T02:00:38.673Z,4.30
2023-01-30T02:03:12.808Z,5.00
2023-01-30T02:05:46.786Z,6.33
2023-01-30T02:08:32.359Z,5.00
2023-01-30T02:11:21.341Z,4.03
2023-01-30T02:13:51.568Z,5.13
2023-01-30T02:16:21.270Z,4.80
2023-01-30T02:18:51.116Z,5.37
2023-01-30T02:21:47.687Z,5.17
2023-01-30T02:24:50.267Z,6.47
2023-01-30T02:27:53.056Z,5.73
2023-01-30T02:31:01.135Z,4.70
2023-01-30T02:33:53.104Z,5.73
2023-01-30T02:36:48.511Z,4.40
2023-01-30T02:39:37.427Z,4.73
2023-01-30T02:42:39.998Z,6.07
2023-01-30T02:45:31.741Z,5.20
2023-01-30T02:48:14.295Z,4.80
2023-01-30T02:50:48.332Z,8.10
2023-01-30T02:53:18.140Z,6.03
2023-01-30T02:55:47.574Z,6.00
2023-01-30T02:58:21.419Z,5.43
2023-01-30T03:01:22.734Z,5.70
2023-01-30T03:04:24.317Z,5.53
2023-01-30T03:07:24.733Z,5.30
2023-01-30T03:10:28.450Z,4.40
2023-01-30T03:13:34.345Z,5.57
2023-01-30T03:16:17.256Z,4.77
2023-01-30T03:18:48.592Z,5.37
2023-01-30T03:21:18.634Z,4.93
2023-01-30T03:23:48.892Z,5.10
2023-01-30T03:26:23.390Z,4.90
2023-01-30T03:28:54.737Z,6.93
2023-01-30T03:31:24.340Z,5.73
2023-01-30T03:33:53.878Z,6.03
2023-01-30T03:36:23.450Z,4.20
2023-01-30T03:38:53.749Z,5.03
2023-01-30T03:41:23.183Z,4.10
2023-01-30T03:43:52.619Z,4.30
2023-01-30T03:46:22.114Z,4.83
2023-01-30T03:48:51.587Z,4.90
2023-01-30T03:51:21.012Z,4.97
2023-01-30T03:53:50.533Z,6.33
2023-01-30T03:56:20.001Z,5.77
2023-01-30T03:58:49.474Z,6.20
2023-01-30T04:01:19.202Z,4.50
2023-01-30T04:03:48.760Z,5.57
2023-01-30T04:06:18.274Z,5.50
2023-01-30T04:08:47.717Z,5.23
2023-01-30T04:11:17.151Z,5.77
2023-01-30T04:13:46.592Z,5.10
2023-01-30T04:16:22.528Z,5.47
2023-01-30T04:18:52.215Z,4.47
2023-01-30T04:21:22.056Z,4.13
2023-01-30T04:23:51.495Z,3.97
2023-01-30T04:26:21.009Z,6.23
2023-01-30T04:28:50.435Z,4.97
2023-01-30T04:31:19.882Z,4.57
2023-01-30T04:33:49.375Z,4.00
2023-01-30T04:36:18.811Z,4.00
2023-01-30T04:38:48.255Z,5.57
2023-01-30T04:41:17.849Z,5.20
2023-01-30T04:43:47.278Z,5.13
2023-01-30T04:46:17.331Z,5.40
2023-01-30T04:48:47.037Z,5.90
2023-01-30T04:51:16.454Z,5.03
2023-01-30T04:53:45.900Z,4.30
2023-01-30T04:56:15.321Z,6.13
2023-01-30T04:58:44.773Z,4.80
2023-01-30T05:01:23.815Z,4.57
2023-01-30T05:03:54.695Z,4.70
2023-01-30T05:06:25.623Z,5.00
2023-01-30T05:08:57.486Z,6.40
2023-01-30T05:11:29.197Z,7.00
2023-01-30T05:13:59.116Z,4.83
2023-01-30T05:16:29.054Z,4.70
2023-01-30T05:18:58.490Z,4.50
2023-01-30T05:21:29.334Z,3.90
2023-01-30T05:23:59.323Z,4.07
2023-01-30T05:26:28.768Z,3.03
2023-01-30T05:28:59.712Z,3.30
2023-01-30T05:31:29.156Z,4.07
2023-01-30T05:33:58.642Z,5.47
2023-01-30T05:36:28.070Z,5.30
2023-01-30T05:38:57.511Z,3.80
2023-01-30T05:41:26.942Z,3.13
2023-01-30T05:43:56.383Z,3.57
2023-01-30T05:46:25.839Z,4.13
2023-01-30T05:48:55.335Z,3.37
2023-01-30T05:51:28.173Z,4.60
2023-01-30T05:53:57.896Z,4.33
2023-01-30T05:56:27.316Z,3.67
2023-01-30T05:58:58.917Z,4.97
2023-01-30T06:01:30.061Z,3.80
2023-01-30T06:04:00.626Z,3.93
2023-01-30T06:06:30.066Z,3.90
2023-01-30T06:08:59.514Z,2.97
2023-01-30T06:11:29.026Z,2.90
2023-01-30T06:13:58.486Z,5.33
2023-01-30T06:16:27.977Z,4.13
2023-01-30T06:18:57.473Z,4.80
2023-01-30T06:21:27.100Z,4.10
2023-01-30T06:23:56.542Z,3.47
2023-01-30T06:26:26.028Z,2.80
2023-01-30T06:28:55.501Z,3.80
2023-01-30T06:31:24.972Z,4.23
2023-01-30T06:33:54.470Z,3.80
2023-01-30T06:36:23.882Z,3.27
2023-01-30T06:38:53.340Z,2.63
2023-01-30T06:41:23.654Z,4.47
2023-01-30T06:43:53.094Z,3.47
2023-01-30T06:46:22.678Z,3.20
2023-01-30T06:48:52.148Z,3.07
2023-01-30T06:51:21.572Z,2.47
2023-01-30T06:53:53.277Z,2.30
2023-01-30T06:56:22.866Z,3.10
2023-01-30T06:58:52.319Z,2.97
2023-01-30T07:01:21.753Z,3.10
2023-01-30T07:03:51.280Z,2.60
2023-01-30T07:06:20.718Z,2.77
2023-01-30T07:08:50.176Z,2.53
2023-01-30T07:11:20.303Z,2.40
2023-01-30T07:13:49.728Z,2.67
2023-01-30T07:16:19.505Z,3.97
2023-01-30T07:18:49.024Z,2.70
2023-01-30T07:21:18.464Z,3.50
2023-01-30T07:23:49.277Z,3.00
2023-01-30T07:26:18.818Z,2.90
2023-01-30T07:28:48.248Z,2.47
2023-01-30T07:31:17.730Z,3.03
2023-01-30T07:33:47.315Z,2.60
2023-01-30T07:36:16.766Z,2.03
2023-01-30T07:38:46.182Z,1.93
2023-01-30T07:41:15.640Z,2.20
2023-01-30T07:43:45.086Z,2.03
2023-01-30T07:46:14.517Z,1.93
2023-01-30T07:48:47.983Z,1.57
2023-01-30T07:51:17.426Z,2.47
2023-01-30T07:53:49.110Z,2.17
2023-01-30T07:56:19.898Z,2.27
2023-01-30T07:58:49.900Z,2.30
2023-01-30T08:01:20.004Z,2.10
2023-01-30T08:03:50.160Z,1.60
2023-01-30T08:06:19.961Z,1.40
2023-01-30T08:08:49.414Z,2.20
2023-01-30T08:11:18.860Z,1.57
2023-01-30T08:13:48.392Z,2.13
2023-01-30T08:16:17.870Z,1.90
2023-01-30T08:18:47.352Z,2.13
2023-01-30T08:21:16.804Z,1.98
2023-01-30T08:23:46.254Z,1.53
2023-01-30T08:26:15.727Z,1.63
2023-01-30T08:28:45.439Z,1.47
2023-01-30T08:31:17.642Z,1.60
2023-01-30T08:33:47.103Z,1.50
2023-01-30T08:36:16.548Z,1.67
2023-01-30T08:38:45.996Z,1.90
2023-01-30T08:41:15.448Z,1.80
2023-01-30T08:43:44.891Z,1.53
2023-01-30T08:46:14.462Z,1.50
2023-01-30T08:48:49.909Z,1.60
2023-01-30T08:51:16.601Z,1.43
2023-01-30T08:53:46.063Z,1.23
2023-01-30T08:56:15.519Z,1.40
2023-01-30T08:58:46.601Z,1.30
2023-01-30T09:01:17.338Z,1.17
2023-01-30T09:03:46.814Z,1.10
2023-01-30T09:06:16.240Z,0.77
2023-01-30T09:08:45.701Z,0.63
2023-01-30T09:11:15.131Z,1.10
2023-01-30T09:13:44.842Z,0.83
2023-01-30T09:16:14.719Z,0.80
2023-01-30T09:18:46.106Z,1.07
2023-01-30T09:21:15.901Z,1.13
2023-01-30T09:23:45.439Z,0.70
2023-01-30T09:26:14.923Z,0.60
2023-01-30T09:28:44.495Z,2.83
2023-01-30T09:31:14.089Z,0.80
2023-01-30T09:33:43.566Z,0.63
2023-01-30T09:36:13.084Z,1.70
2023-01-30T09:38:42.599Z,1.67
2023-01-30T09:41:16.663Z,0.60
2023-01-30T09:43:59.611Z,0.50
2023-01-30T09:46:59.179Z,1.07
2023-01-30T09:49:33.235Z,1.00
2023-01-30T09:52:22.259Z,2.47
2023-01-30T09:54:54.752Z,2.50
2023-01-30T09:57:27.612Z,0.67
2023-01-30T10:00:08.569Z,2.93
2023-01-30T10:03:07.629Z,1.00
2023-01-30T10:05:42.008Z,2.50
2023-01-30T10:08:53.711Z,2.83
2023-01-30T10:11:45.415Z,2.03
2023-01-30T10:14:37.682Z,2.70
2023-01-30T10:17:26.296Z,1.13
2023-01-30T10:20:24.121Z,3.30
2023-01-30T10:23:04.352Z,3.10
2023-01-30T10:25:47.291Z,2.20
2023-01-30T10:28:30.259Z,1.37
2023-01-30T10:31:12.992Z,2.17
2023-01-30T10:33:58.677Z,3.90
2023-01-30T10:36:35.249Z,2.40
2023-01-30T10:39:09.304Z,3.17
2023-01-30T10:41:42.979Z,1.67
2023-01-30T10:44:14.787Z,2.80
2023-01-30T10:47:22.803Z,1.13
2023-01-30T10:49:55.153Z,1.53
2023-01-30T10:52:47.182Z,3.00
2023-01-30T10:55:42.190Z,1.87
2023-01-30T10:58:35.913Z,1.33
2023-01-30T11:01:15.534Z,0.90
2023-01-30T11:03:49.587Z,1.70
2023-01-30T11:06:27.066Z,5.17
2023-01-30T11:08:58.242Z,4.00
2023-01-30T11:11:50.223Z,1.67
2023-01-30T11:14:19.986Z,1.97
2023-01-30T11:16:55.603Z,2.97
2023-01-30T11:19:37.336Z,5.13
2023-01-30T11:22:08.061Z,4.20
2023-01-30T11:24:46.559Z,4.47
2023-01-30T11:27:32.775Z,3.77
2023-01-30T11:30:15.962Z,7.10
2023-01-30T11:32:48.666Z,3.03
2023-01-30T11:35:22.733Z,4.90
2023-01-30T11:37:53.510Z,1.93
2023-01-30T11:40:31.196Z,3.43
2023-01-30T11:43:13.767Z,2.40
2023-01-30T11:45:50.223Z,2.83
2023-01-30T11:48:33.507Z,1.97
2023-01-30T11:51:06.068Z,2.83
2023-01-30T11:53:42.771Z,1.30
2023-01-30T11:56:19.915Z,3.40
2023-01-30T11:58:55.742Z,1.37
2023-01-30T12:01:35.583Z,1.00
2023-01-30T12:04:09.898Z,2.63
2023-01-30T12:06:43.424Z,3.73
2023-01-30T12:09:34.901Z,5.93
2023-01-30T12:12:24.289Z,4.30
2023-01-30T12:14:56.744Z,4.10
2023-01-30T12:17:59.317Z,5.60
2023-01-30T12:20:51.645Z,5.60
2023-01-30T12:23:34.603Z,3.83
2023-01-30T12:26:23.426Z,4.87
2023-01-30T12:29:29.536Z,3.43
2023-01-30T12:32:20.366Z,3.93
2023-01-30T12:34:50.893Z,1.93
2023-01-30T12:37:48.583Z,1.87
2023-01-30T12:40:31.502Z,4.23
2023-01-30T12:43:14.073Z,3.83
2023-01-30T12:45:53.978Z,2.20
2023-01-30T12:48:48.634Z,2.97
2023-01-30T12:51:27.260Z,4.57
2023-01-30T12:54:07.001Z,2.60
2023-01-30T12:56:43.737Z,3.33
2023-01-30T12:59:43.505Z,2.23
2023-01-30T13:02:35.700Z,2.83
2023-01-30T13:05:26.019Z,1.60
2023-01-30T13:08:15.054Z,2.63
2023-01-30T13:10:54.805Z,2.77
2023-01-30T13:13:31.771Z,2.70
2023-01-30T13:16:21.060Z,3.67
2023-01-30T13:18:58.005Z,3.83
2023-01-30T13:21:43.786Z,3.33
2023-01-30T13:24:23.333Z,1.17
2023-01-30T13:26:55.925Z,3.90
2023-01-30T13:29:32.735Z,2.57
2023-01-30T13:32:06.903Z,2.10
2023-01-30T13:34:44.593Z,1.67
2023-01-30T13:37:17.581Z,4.17
2023-01-30T13:40:18.681Z,1.57
2023-01-30T13:43:01.798Z,2.30
2023-01-30T13:45:35.647Z,1.63
2023-01-30T13:48:12.701Z,2.27
2023-01-30T13:51:37.082Z,1.23
2023-01-30T13:54:44.479Z,2.07
2023-01-30T13:57:30.102Z,3.73
2023-01-30T14:00:22.222Z,2.43
2023-01-30T14:03:08.352Z,2.33
2023-01-30T14:06:01.941Z,2.43
2023-01-30T14:08:48.257Z,1.27
2023-01-30T14:11:40.439Z,1.43
2023-01-30T14:14:29.414Z,0.77
2023-01-30T14:17:15.640Z,0.67
2023-01-30T14:20:08.029Z,0.60
2023-01-30T14:22:54.135Z,0.20
2023-01-30T14:25:37.188Z,0.47
2023-01-30T14:28:11.227Z,0.67
2023-01-30T14:30:53.664Z,0.30
2023-01-30T14:33:29.333Z,0.40
2023-01-30T14:36:17.507Z,0.40
2023-01-30T14:38:51.539Z,0.33
2023-01-30T14:41:41.552Z,0.93
2023-01-30T14:44:10.993Z,1.17
2023-01-30T14:46:56.138Z,1.20
2023-01-30T14:49:20.832Z,1.17
2023-01-30T14:51:52.966Z,1.20
2023-01-30T14:54:33.242Z,1.90
2023-01-30T14:57:02.895Z,1.50
2023-01-30T15:00:14.182Z,1.57
2023-01-30T15:02:34.460Z,2.97
2023-01-30T15:05:14.357Z,2.57
2023-01-30T15:07:51.074Z,3.27
2023-01-30T15:10:50.507Z,4.60
2023-01-30T15:13:47.230Z,3.60
2023-01-30T15:16:41.676Z,2.00
2023-01-30T15:19:30.055Z,1.77
2023-01-30T15:22:06.785Z,1.80
2023-01-30T15:24:49.563Z,1.23
2023-01-30T15:27:57.165Z,1.63
2023-01-30T15:31:01.434Z,1.90
2023-01-30T15:33:32.507Z,2.57
2023-01-30T15:36:05.876Z,1.20
2023-01-30T15:38:36.382Z,2.63
2023-01-30T15:41:07.973Z,1.50
2023-01-30T15:44:00.094Z,1.20
2023-01-30T15:46:59.478Z,1.77
2023-01-30T15:49:45.091Z,1.73
2023-01-30T15:52:21.956Z,1.13
2023-01-30T15:54:54.974Z,0.77
2023-01-30T15:57:39.849Z,2.93
2023-01-30T16:00:14.530Z,2.33
2023-01-30T16:02:44.989Z,0.97
2023-01-30T16:05:25.444Z,1.13
2023-01-30T16:07:59.449Z,2.27
2023-01-30T16:10:31.619Z,1.53
2023-01-30T16:13:04.619Z,2.13
2023-01-30T16:15:42.396Z,2.13
2023-01-30T16:18:24.755Z,2.63
2023-01-30T16:21:02.748Z,8.60
2023-01-30T16:23:36.775Z,5.97
2023-01-30T16:26:10.283Z,3.90
2023-01-30T16:28:39.808Z,4.00
2023-01-30T16:31:12.497Z,2.70
2023-01-30T16:33:42.106Z,3.87
2023-01-30T16:36:28.309Z,2.83
2023-01-30T16:38:57.891Z,2.73
2023-01-30T16:41:58.389Z,2.07
2023-01-30T16:44:33.054Z,3.00
2023-01-30T16:47:07.083Z,2.63
2023-01-30T16:49:46.700Z,3.90
2023-01-30T16:52:29.085Z,1.93
2023-01-30T16:55:03.253Z,2.87
2023-01-30T16:57:46.591Z,2.73
2023-01-30T17:00:23.979Z,2.43
2023-01-30T17:03:00.942Z,1.70
2023-01-30T17:05:34.443Z,3.90
2023-01-30T17:08:04.072Z,2.40
2023-01-30T17:10:44.895Z,1.67
2023-01-30T17:13:28.073Z,2.30
2023-01-30T17:16:24.765Z,2.57
2023-01-30T17:18:58.360Z,3.03
2023-01-30T17:21:32.533Z,2.80
2023-01-30T17:24:05.691Z,2.37
2023-01-30T17:26:35.752Z,3.50
2023-01-30T17:29:07.187Z,2.03
2023-01-30T17:31:36.605Z,3.20
2023-01-30T17:34:06.078Z,2.10
2023-01-30T17:36:35.578Z,1.87
2023-01-30T17:39:06.609Z,4.00
2023-01-30T17:41:37.982Z,2.77
2023-01-30T17:44:09.398Z,2.63
2023-01-30T17:46:50.395Z,2.73
2023-01-30T17:49:23.682Z,4.77
2023-01-30T17:51:55.453Z,5.27
2023-01-30T17:54:25.357Z,2.93
2023-01-30T17:57:05.380Z,2.43
2023-01-30T17:59:34.909Z,2.50
2023-01-30T18:02:04.349Z,3.07
2023-01-30T18:04:33.803Z,3.33
2023-01-30T18:07:06.929Z,5.13
2023-01-30T18:09:36.445Z,4.53
2023-01-30T18:12:06.153Z,4.83
2023-01-30T18:14:35.627Z,5.73
2023-01-30T18:17:05.612Z,3.90
2023-01-30T18:19:35.411Z,4.67
2023-01-30T18:22:04.858Z,3.87
2023-01-30T18:24:34.556Z,5.43
2023-01-30T18:27:04.110Z,5.13
2023-01-30T18:29:33.605Z,4.10
2023-01-30T18:32:04.687Z,6.53
2023-01-30T18:34:35.363Z,3.73
2023-01-30T18:37:04.798Z,5.90
2023-01-30T18:39:34.833Z,4.87
2023-01-30T18:42:04.312Z,3.53
2023-01-30T18:44:33.744Z,5.67
2023-01-30T18:47:03.179Z,5.10
2023-01-30T18:49:32.629Z,6.57
2023-01-30T18:52:02.362Z,4.77
2023-01-30T18:54:31.844Z,4.97
2023-01-30T18:57:01.299Z,4.10
2023-01-30T18:59:30.749Z,7.70
2023-01-30T19:02:00.185Z,4.93
2023-01-30T19:04:29.627Z,5.77
2023-01-30T19:06:59.057Z,4.57
2023-01-30T19:09:28.506Z,7.73
2023-01-30T19:12:15.748Z,6.47
2023-01-30T19:14:45.178Z,6.10
2023-01-30T19:17:16.291Z,2.73
2023-01-30T19:19:46.402Z,9.53
2023-01-30T19:22:17.321Z,2.43
2023-01-30T19:24:47.199Z,4.50
2023-01-30T19:27:16.643Z,4.13
2023-01-30T19:29:46.081Z,3.43
2023-01-30T19:32:15.899Z,5.43
2023-01-30T19:34:45.331Z,4.23
2023-01-30T19:37:15.257Z,5.93
2023-01-30T19:39:44.686Z,5.87
2023-01-30T19:42:15.773Z,5.40
2023-01-30T19:44:45.210Z,6.07
2023-01-30T19:47:14.731Z,3.57
2023-01-30T19:49:44.171Z,6.93
2023-01-30T19:52:13.606Z,6.90
2023-01-30T19:54:44.023Z,5.60
2023-01-30T19:57:14.345Z,6.13
2023-01-30T19:59:44.889Z,3.97
2023-01-30T20:02:15.167Z,2.43
2023-01-30T20:04:44.625Z,6.57
2023-01-30T20:07:14.068Z,2.53
2023-01-30T20:09:43.535Z,4.27
2023-01-30T20:12:13.532Z,3.47
2023-01-30T20:14:43.002Z,2.23
2023-01-30T20:17:14.116Z,5.27
2023-01-30T20:19:43.717Z,6.10
2023-01-30T20:22:13.156Z,6.20
2023-01-30T20:24:42.598Z,5.23
2023-01-30T20:27:12.215Z,4.63
2023-01-30T20:29:41.644Z,3.33
2023-01-30T20:32:11.110Z,1.93
2023-01-30T20:34:40.562Z,2.50
2023-01-30T20:37:09.987Z,4.70
2023-01-30T20:39:39.796Z,3.17
2023-01-30T20:42:09.255Z,3.30
2023-01-30T20:44:39.782Z,1.47
2023-01-30T20:47:09.855Z,2.37
2023-01-30T20:49:39.576Z,2.43
2023-01-30T20:52:08.987Z,1.20
2023-01-30T20:54:38.505Z,2.60
2023-01-30T20:57:08.157Z,1.90
2023-01-30T20:59:37.574Z,3.40
2023-01-30T21:02:07.282Z,3.47
2023-01-30T21:04:38.475Z,3.57
2023-01-30T21:07:07.904Z,2.40
2023-01-30T21:09:37.652Z,1.27
2023-01-30T21:12:07.230Z,0.90
2023-01-30T21:14:37.012Z,2.93
2023-01-30T21:17:06.760Z,1.23
2023-01-30T21:19:38.388Z,2.03
2023-01-30T21:22:10.870Z,1.40
2023-01-30T21:24:40.376Z,2.97
2023-01-30T21:27:09.824Z,3.20
2023-01-30T21:29:39.282Z,2.80
2023-01-30T21:32:08.754Z,1.67
2023-01-30T21:34:38.219Z,1.97
2023-01-30T21:37:25.656Z,1.83
2023-01-30T21:40:12.807Z,2.47
2023-01-30T21:43:00.167Z,3.20
2023-01-30T21:45:29.569Z,1.57
2023-01-30T21:47:59.017Z,1.90
2023-01-30T21:50:29.594Z,2.50
2023-01-30T21:52:59.044Z,4.27
2023-01-30T21:55:28.480Z,2.90
2023-01-30T21:57:58.491Z,1.63
2023-01-30T22:00:27.929Z,2.77
2023-01-30T22:02:57.701Z,1.20
2023-01-30T22:05:27.689Z,1.53
2023-01-30T22:07:57.155Z,2.50
2023-01-30T22:10:26.602Z,4.47
2023-01-30T22:12:56.065Z,2.50
2023-01-30T22:15:26.366Z,4.00
2023-01-30T22:17:55.843Z,6.63
2023-01-30T22:20:25.355Z,4.37
2023-01-30T22:22:55.021Z,3.27
2023-01-30T22:25:24.558Z,3.07
2023-01-30T22:27:54.389Z,4.93
2023-01-30T22:30:23.862Z,3.07
2023-01-30T22:32:55.576Z,4.30
2023-01-30T22:35:25.015Z,3.50
2023-01-30T22:37:54.440Z,4.13
2023-01-30T22:40:23.880Z,2.10
2023-01-30T22:42:53.308Z,2.47
2023-01-30T22:45:22.761Z,2.80
2023-01-30T22:47:52.183Z,2.73
2023-01-30T22:50:21.631Z,4.10
2023-01-30T22:52:51.065Z,2.73
2023-01-30T22:55:21.003Z,4.10
2023-01-30T22:57:50.617Z,4.60
2023-01-30T23:00:20.332Z,3.93
2023-01-30T23:02:49.760Z,2.03
2023-01-30T23:05:19.448Z,2.67
2023-01-30T23:07:49.113Z,3.80
2023-01-30T23:10:18.961Z,2.77
2023-01-30T23:13:06.733Z,3.53
2023-01-30T23:15:39.066Z,4.00
2023-01-30T23:18:28.204Z,4.10
2023-01-30T23:20:57.811Z,3.53
2023-01-30T23:23:28.069Z,3.47
2023-01-30T23:25:57.507Z,2.57
2023-01-30T23:28:27.020Z,4.27
2023-01-30T23:30:56.465Z,2.27
2023-01-30T23:33:26.066Z,3.23
2023-01-30T23:35:55.501Z,4.13
2023-01-30T23:38:25.194Z,1.90
2023-01-30T23:40:54.682Z,3.63
2023-01-30T23:43:24.116Z,2.17
2023-01-30T23:45:55.256Z,3.50
2023-01-30T23:48:24.709Z,2.83
2023-01-30T23:50:54.137Z,4.33
2023-01-30T23:53:23.578Z,3.03
2023-01-30T23:55:54.597Z,3.80
2023-01-30T23:58:24.085Z,5.27
